Time;durP1;ratioP1;P1;durP2;ratioP2;P2;SDS_P1;SDS_P2;PMS_P1;PMS_P2;Temp;Humidity;BMP_temperature;BMP_pressure;BME280_temperature;BME280_humidity;BME280_pressure;Samples;Min_cycle;Max_cycle;Signal;HPM_P1;HPM_P2
2021/04/14 00:01:15;;;;;;;8.68;5.10;;;0.90;89.90;;;;;;5063722;28;20056;-37
2021/04/14 00:03:41;;;;;;;7.43;4.75;;;0.90;90.20;;;;;;5064144;28;20276;-37
2021/04/14 00:06:12;;;;;;;8.57;4.47;;;0.90;89.50;;;;;;5063342;28;20048;-37
2021/04/14 00:08:41;;;;;;;11.85;5.50;;;0.90;89.80;;;;;;5061524;28;20041;-38
2021/04/14 00:11:15;;;;;;;8.20;5.05;;;0.90;90.40;;;;;;5064563;28;20110;-37
2021/04/14 00:13:43;;;;;;;8.10;5.13;;;0.80;90.40;;;;;;5058986;28;20057;-38
2021/04/14 00:16:13;;;;;;;7.50;4.93;;;0.80;90.50;;;;;;5064210;28;20040;-37
2021/04/14 00:18:41;;;;;;;8.55;4.55;;;0.70;91.30;;;;;;5065951;28;20128;-37
2021/04/14 00:21:09;;;;;;;6.63;5.20;;;0.70;91.00;;;;;;5064499;28;20049;-37
2021/04/14 00:23:35;;;;;;;7.07;4.90;;;0.70;90.90;;;;;;5064354;28;20040;-37
2021/04/14 00:26:06;;;;;;;9.52;4.97;;;0.70;90.90;;;;;;5063332;28;20507;-38
2021/04/14 00:28:33;;;;;;;7.35;5.40;;;0.70;91.40;;;;;;5066791;28;20142;-38
2021/04/14 00:31:01;;;;;;;9.38;4.88;;;0.60;91.00;;;;;;5066910;28;20047;-37
2021/04/14 00:33:27;;;;;;;6.75;6.00;;;0.60;90.90;;;;;;5067143;28;20052;-37
2021/04/14 00:35:55;;;;;;;10.70;6.07;;;0.60;91.10;;;;;;5067007;28;20066;-38
2021/04/14 00:38:22;;;;;;;6.93;6.10;;;0.60;91.30;;;;;;5067436;28;20060;-37
2021/04/14 00:40:56;;;;;;;9.48;5.80;;;0.50;91.30;;;;;;5066018;28;20060;-38
2021/04/14 00:43:26;;;;;;;11.70;6.47;;;0.50;91.40;;;;;;5063671;28;20064;-38
2021/04/14 00:45:53;;;;;;;8.18;6.10;;;0.50;91.40;;;;;;5064494;28;20439;-38
2021/04/14 00:48:19;;;;;;;10.23;6.05;;;0.50;91.30;;;;;;5067556;28;20056;-38
2021/04/14 00:50:47;;;;;;;7.70;6.28;;;0.40;91.10;;;;;;5067070;28;20045;-38
2021/04/14 00:53:14;;;;;;;7.05;5.80;;;0.50;91.30;;;;;;5066454;28;20453;-38
2021/04/14 00:55:43;;;;;;;9.40;6.50;;;0.50;91.20;;;;;;5066986;28;20094;-38
2021/04/14 00:58:09;;;;;;;8.80;6.15;;;0.50;91.20;;;;;;5067030;28;20064;-37
2021/04/14 01:00:48;;;;;;;10.02;6.35;;;0.50;91.30;;;;;;5066562;28;20053;-37
2021/04/14 01:03:28;;;;;;;8.52;5.55;;;0.40;91.20;;;;;;5067367;28;20052;-38
2021/04/14 01:05:55;;;;;;;7.13;5.03;;;0.40;91.10;;;;;;5066870;28;20052;-38
2021/04/14 01:08:24;;;;;;;10.18;6.10;;;0.40;91.00;;;;;;5065971;28;20052;-38
2021/04/14 01:10:51;;;;;;;7.80;5.88;;;0.40;90.70;;;;;;5069878;28;20042;-39
2021/04/14 01:13:21;;;;;;;8.20;5.75;;;0.30;90.90;;;;;;5064808;28;20393;-38
2021/04/14 01:15:50;;;;;;;8.30;5.32;;;0.40;91.10;;;;;;5066940;28;20225;-40
2021/04/14 01:18:20;;;;;;;8.73;6.35;;;0.30;90.80;;;;;;5066381;28;20219;-38
2021/04/14 01:20:46;;;;;;;9.63;6.88;;;0.30;90.60;;;;;;5065598;28;20135;-38
2021/04/14 01:23:13;;;;;;;9.52;6.20;;;0.30;91.00;;;;;;5066086;28;20056;-41
2021/04/14 01:25:40;;;;;;;11.02;6.97;;;0.20;90.80;;;;;;5065701;28;20191;-37
2021/04/14 01:28:16;;;;;;;8.60;6.55;;;0.20;91.00;;;;;;5066782;28;20048;-38
2021/04/14 01:30:42;;;;;;;10.25;7.20;;;0.30;90.70;;;;;;5064008;28;20405;-38
2021/04/14 01:33:12;;;;;;;8.43;6.97;;;0.20;90.80;;;;;;5065340;28;20052;-38
2021/04/14 01:35:40;;;;;;;10.55;7.05;;;0.20;91.10;;;;;;5065667;28;20044;-38
2021/04/14 01:38:08;;;;;;;10.90;7.30;;;0.20;90.90;;;;;;5065458;28;20049;-38
2021/04/14 01:40:35;;;;;;;9.95;8.07;;;0.10;91.00;;;;;;5063513;28;20057;-38
2021/04/14 01:43:00;;;;;;;13.75;8.32;;;0.10;91.00;;;;;;5064919;28;20048;-38
2021/04/14 01:45:33;;;;;;;11.68;7.75;;;0.10;90.90;;;;;;5065094;28;20105;-38
2021/04/14 01:47:59;;;;;;;;;;;0.00;91.60;;;;;;5066126;28;20408;-38
2021/04/14 01:50:29;;;;;;;11.50;7.38;;;-0.10;92.20;;;;;;5065816;28;20338;-38
2021/04/14 01:52:56;;;;;;;9.93;6.50;;;-0.10;91.90;;;;;;5066011;28;20048;-38
2021/04/14 01:55:24;;;;;;;11.65;7.40;;;-0.20;91.60;;;;;;5066540;28;20075;-38
2021/04/14 01:57:51;;;;;;;9.07;7.53;;;-0.10;92.00;;;;;;5066952;28;20068;-38
2021/04/14 02:00:46;;;;;;;10.50;8.23;;;-0.10;92.00;;;;;;5064421;28;20127;-38
2021/04/14 02:03:13;;;;;;;10.07;7.38;;;-0.20;92.10;;;;;;5065567;28;20044;-38
2021/04/14 02:05:39;;;;;;;11.75;8.57;;;-0.20;92.20;;;;;;5064982;28;20166;-38
2021/04/14 02:08:06;;;;;;;11.55;7.95;;;-0.10;92.50;;;;;;5065754;28;20044;-38
2021/04/14 02:10:33;;;;;;;10.88;8.30;;;-0.10;92.70;;;;;;5065171;28;20102;-38
2021/04/14 02:13:05;;;;;;;10.50;7.47;;;-0.10;92.40;;;;;;5065374;28;20056;-37
2021/04/14 02:15:34;;;;;;;12.23;8.77;;;-0.20;92.30;;;;;;5062249;28;20048;-38
2021/04/14 02:18:20;;;;;;;10.88;8.27;;;-0.20;92.70;;;;;;5064398;28;20150;-38
2021/04/14 02:20:54;;;;;;;14.73;9.15;;;-0.20;92.10;;;;;;5065382;28;20131;-37
2021/04/14 02:23:26;;;;;;;11.80;8.52;;;-0.20;92.10;;;;;;5065271;28;20076;-38
2021/04/14 02:26:15;;;;;;;11.05;8.55;;;-0.20;92.30;;;;;;5065834;28;20047;-38
2021/04/14 02:28:44;;;;;;;10.32;8.13;;;-0.20;92.20;;;;;;5065448;28;20060;-38
2021/04/14 02:31:13;;;;;;;12.13;8.80;;;-0.20;91.90;;;;;;5065202;28;20072;-37
2021/04/14 02:33:39;;;;;;;12.15;8.95;;;-0.20;92.40;;;;;;5065032;28;20045;-38
2021/04/14 02:36:06;;;;;;;10.00;8.25;;;-0.10;92.60;;;;;;5064332;28;20408;-37
2021/04/14 02:38:32;;;;;;;10.93;8.10;;;-0.20;92.20;;;;;;5064356;28;20060;-38
2021/04/14 02:41:03;;;;;;;13.15;9.60;;;-0.20;92.10;;;;;;5064918;28;20060;-38
2021/04/14 02:43:51;;;;;;;13.95;10.02;;;-0.20;92.40;;;;;;5063411;28;20716;-38
2021/04/14 02:46:18;;;;;;;11.95;8.85;;;-0.30;92.70;;;;;;5064980;28;20053;-38
2021/04/14 02:48:44;;;;;;;12.52;9.13;;;-0.30;92.40;;;;;;5064124;28;20508;-38
2021/04/14 02:51:30;;;;;;;10.80;8.60;;;-0.30;92.60;;;;;;5061125;28;20045;-38
2021/04/14 02:53:57;;;;;;;11.63;9.00;;;-0.30;92.50;;;;;;5065107;28;20489;-38
2021/04/14 02:56:24;;;;;;;11.75;9.73;;;-0.30;92.90;;;;;;5063850;28;20667;-38
2021/04/14 02:58:50;;;;;;;13.55;9.75;;;-0.40;92.50;;;;;;5064350;28;20140;-38
2021/04/14 03:01:17;;;;;;;15.82;8.60;;;-0.40;92.70;;;;;;5064131;28;20049;-38
2021/04/14 03:03:42;;;;;;;12.35;9.32;;;-0.40;92.80;;;;;;5064005;28;20048;-38
2021/04/14 03:06:08;;;;;;;13.93;9.82;;;-0.40;92.50;;;;;;5064821;28;20056;-37
2021/04/14 03:08:34;;;;;;;13.45;9.35;;;-0.50;92.10;;;;;;5064226;28;20514;-38
2021/04/14 03:11:20;;;;;;;12.23;9.50;;;-0.40;92.80;;;;;;5063266;28;20434;-38
2021/04/14 03:13:46;;;;;;;12.38;9.73;;;-0.50;93.10;;;;;;5063623;28;20209;-38
2021/04/14 03:16:12;;;;;;;13.38;10.18;;;-0.50;93.40;;;;;;5063470;28;20140;-38
2021/04/14 03:18:38;;;;;;;12.82;8.95;;;-0.50;93.20;;;;;;5065440;28;20119;-38
2021/04/14 03:21:04;;;;;;;14.88;10.95;;;-0.50;93.30;;;;;;5064317;28;20041;-38
2021/04/14 03:23:30;;;;;;;13.98;8.27;;;-0.50;93.30;;;;;;5064304;28;20055;-36
2021/04/14 03:25:56;;;;;;;11.18;8.50;;;-0.50;93.10;;;;;;5063696;28;20122;-37
2021/04/14 03:28:22;;;;;;;12.30;9.43;;;-0.50;93.20;;;;;;5068056;28;20044;-37
2021/04/14 03:30:48;;;;;;;13.38;9.90;;;-0.60;92.90;;;;;;5064323;28;20709;-37
2021/04/14 03:33:16;;;;;;;11.88;8.68;;;-0.60;92.60;;;;;;5063752;28;20040;-37
2021/04/14 03:35:42;;;;;;;11.98;9.75;;;-0.60;92.30;;;;;;5064729;28;20053;-37
2021/04/14 03:38:08;;;;;;;12.30;10.07;;;-0.60;92.30;;;;;;5068553;28;20041;-37
2021/04/14 03:40:54;;;;;;;13.77;9.23;;;-0.60;92.70;;;;;;5063085;28;20566;-37
2021/04/14 03:43:20;;;;;;;11.90;10.40;;;-0.60;92.60;;;;;;5063669;28;20044;-37
2021/04/14 03:45:48;;;;;;;11.40;9.60;;;-0.60;92.50;;;;;;5064314;28;21975;-37
2021/04/14 03:48:14;;;;;;;12.43;9.35;;;-0.60;92.70;;;;;;5062433;28;20102;-37
2021/04/14 03:50:40;;;;;;;14.48;9.23;;;-0.60;92.70;;;;;;5064505;28;20052;-37
2021/04/14 03:53:29;;;;;;;12.93;9.43;;;-0.70;92.70;;;;;;5047982;28;20059;-37
2021/04/14 03:56:09;;;;;;;12.20;10.60;;;-0.70;93.00;;;;;;5063504;28;20131;-37
2021/04/14 03:58:40;;;;;;;14.65;10.60;;;-0.70;93.10;;;;;;5063232;28;20071;-36
2021/04/14 04:01:12;;;;;;;17.65;9.43;;;-0.80;92.90;;;;;;5063290;28;20098;-37
2021/04/14 04:03:39;;;;;;;13.73;10.20;;;-0.80;92.90;;;;;;5066015;28;20044;-37
2021/04/14 04:06:05;;;;;;;13.60;10.43;;;-0.80;93.00;;;;;;5067248;28;20159;-37
2021/04/14 04:08:46;;;;;;;19.93;11.80;;;-0.80;92.80;;;;;;5069499;28;20078;-37
2021/04/14 04:11:13;;;;;;;12.73;10.27;;;-0.80;93.10;;;;;;5067620;28;20091;-37
2021/04/14 04:13:41;;;;;;;13.27;9.63;;;-0.80;93.10;;;;;;5067003;28;20068;-37
2021/04/14 04:16:07;;;;;;;14.88;11.60;;;-0.80;93.00;;;;;;5067683;28;20044;-36
2021/04/14 04:18:36;;;;;;;13.15;10.27;;;-0.90;92.70;;;;;;5067188;28;20051;-37
2021/04/14 04:21:03;;;;;;;16.02;10.60;;;-0.90;92.90;;;;;;5066860;28;20056;-37
2021/04/14 04:23:29;;;;;;;14.63;10.77;;;-0.90;93.20;;;;;;5067283;28;20131;-37
2021/04/14 04:25:55;;;;;;;14.95;12.05;;;-0.90;93.20;;;;;;5067964;28;20185;-37
2021/04/14 04:28:24;;;;;;;13.02;11.48;;;-0.90;93.50;;;;;;5068496;28;20139;-38
2021/04/14 04:30:50;;;;;;;13.68;11.18;;;-0.90;93.50;;;;;;5066845;28;20071;-38
2021/04/14 04:33:18;;;;;;;14.60;11.95;;;-0.90;93.20;;;;;;5066958;28;20040;-38
2021/04/14 04:36:04;;;;;;;15.50;11.10;;;-0.90;93.50;;;;;;5065989;28;20106;-38
2021/04/14 04:38:33;;;;;;;15.63;11.05;;;-0.90;93.70;;;;;;5067679;28;20172;-38
2021/04/14 04:41:01;;;;;;;13.50;10.57;;;-1.00;93.80;;;;;;5068918;28;20512;-37
2021/04/14 04:43:27;;;;;;;15.93;11.07;;;-0.90;93.60;;;;;;5066339;28;20067;-38
2021/04/14 04:45:56;;;;;;;15.98;12.07;;;-1.00;93.80;;;;;;5067027;28;20174;-38
2021/04/14 04:48:23;;;;;;;13.35;11.20;;;-1.00;93.30;;;;;;5066625;28;20055;-38
2021/04/14 04:50:49;;;;;;;16.65;11.85;;;-1.00;93.30;;;;;;5078285;28;20075;-38
2021/04/14 04:53:17;;;;;;;14.70;11.48;;;-0.90;93.50;;;;;;5065696;28;20111;-38
2021/04/14 04:55:47;;;;;;;13.70;10.88;;;-0.90;93.60;;;;;;5065758;28;20052;-38
2021/04/14 04:58:17;;;;;;;14.95;11.73;;;-0.90;94.00;;;;;;5066428;28;20094;-38
2021/04/14 05:00:45;;;;;;;13.35;11.10;;;-0.90;93.60;;;;;;5066114;28;20138;-39
2021/04/14 05:03:17;;;;;;;17.25;12.00;;;-0.90;93.40;;;;;;5057156;28;20056;-38
2021/04/14 05:05:43;;;;;;;13.45;11.52;;;-0.90;93.60;;;;;;5062239;28;20048;-36
2021/04/14 05:08:10;;;;;;;15.63;12.13;;;-0.80;94.80;;;;;;5062501;28;20040;-37
2021/04/14 05:10:37;;;;;;;15.52;11.93;;;-0.80;94.90;;;;;;5066304;28;20461;-37
2021/04/14 05:13:04;;;;;;;16.30;12.05;;;-0.70;95.00;;;;;;5069863;28;20036;-37
2021/04/14 05:15:33;;;;;;;18.15;13.63;;;-0.70;95.10;;;;;;5066234;28;20375;-37
2021/04/14 05:17:59;;;;;;;15.18;12.43;;;-0.60;95.20;;;;;;5065164;28;20072;-37
2021/04/14 05:20:38;;;;;;;17.40;12.27;;;-0.60;95.10;;;;;;5064925;28;20045;-37
2021/04/14 05:23:08;;;;;;;13.05;10.98;;;-0.60;95.10;;;;;;5072727;28;20040;-37
2021/04/14 05:25:37;;;;;;;15.48;12.27;;;-0.50;95.10;;;;;;5065902;28;20044;-37
2021/04/14 05:28:09;;;;;;;19.50;12.73;;;-0.50;95.00;;;;;;5064963;28;20097;-37
2021/04/14 05:30:38;;;;;;;18.00;13.00;;;-0.50;94.80;;;;;;5066441;28;20078;-37
2021/04/14 05:33:05;;;;;;;13.88;12.40;;;-0.40;94.50;;;;;;5065426;28;20052;-37
2021/04/14 05:35:40;;;;;;;18.63;11.73;;;-0.40;94.60;;;;;;5064069;28;20114;-37
2021/04/14 05:38:08;;;;;;;17.63;12.18;;;-0.40;94.90;;;;;;5064968;28;20125;-37
2021/04/14 05:40:35;;;;;;;14.30;10.80;;;-0.30;94.80;;;;;;5064746;28;20082;-38
2021/04/14 05:43:28;;;;;;;13.93;12.10;;;-0.20;94.90;;;;;;5064021;28;20063;-37
2021/04/14 05:46:03;;;;;;;16.10;10.70;;;0.00;94.80;;;;;;5063021;28;20044;-37
2021/04/14 05:48:29;;;;;;;15.88;10.32;;;0.10;95.00;;;;;;5066721;28;20052;-37
2021/04/14 05:51:04;;;;;;;14.13;10.10;;;0.40;94.60;;;;;;5067649;28;20164;-38
2021/04/14 05:53:31;;;;;;;94.82;59.15;;;0.60;94.30;;;;;;5062964;28;20580;-37
2021/04/14 05:55:57;;;;;;;17.67;11.57;;;0.80;94.00;;;;;;5071443;28;20130;-38
2021/04/14 05:58:23;;;;;;;12.70;8.35;;;1.10;93.90;;;;;;5069293;28;20694;-38
2021/04/14 06:00:52;;;;;;;11.82;9.10;;;1.20;93.10;;;;;;5074943;28;20074;-38
2021/04/14 06:03:20;;;;;;;11.45;8.63;;;1.50;92.90;;;;;;5050156;28;20053;-38
2021/04/14 06:05:56;;;;;;;12.93;8.40;;;1.60;92.70;;;;;;5063914;28;20056;-38
2021/04/14 06:08:25;;;;;;;12.07;8.30;;;1.90;92.70;;;;;;5068528;28;20048;-38
2021/04/14 06:11:11;;;;;;;8.55;7.57;;;2.00;92.00;;;;;;5064774;28;20495;-38
2021/04/14 06:13:38;;;;;;;12.13;7.25;;;2.20;91.70;;;;;;5064952;28;20084;-36
2021/04/14 06:16:13;;;;;;;10.63;8.75;;;2.40;91.50;;;;;;5064543;28;20048;-38
2021/04/14 06:18:40;;;;;;;9.68;7.13;;;2.70;91.80;;;;;;5067192;28;20134;-38
2021/04/14 06:21:07;;;;;;;8.95;7.25;;;2.90;90.90;;;;;;5064866;28;20041;-38
2021/04/14 06:23:33;;;;;;;9.10;7.63;;;3.00;91.20;;;;;;5057120;28;20053;-38
2021/04/14 06:28:37;;;;;;;9.38;7.10;;;3.40;90.10;;;;;;5066159;28;20036;-38
2021/04/14 06:31:03;;;;;;;8.30;5.88;;;3.50;89.70;;;;;;5067838;28;20052;-38
2021/04/14 06:33:38;;;;;;;9.75;6.72;;;3.70;90.20;;;;;;5061742;28;20052;-38
2021/04/14 06:36:09;;;;;;;10.93;7.05;;;3.90;88.30;;;;;;5059575;28;20109;-39
2021/04/14 06:38:40;;;;;;;12.23;6.13;;;4.10;89.00;;;;;;5062441;28;20563;-38
2021/04/14 06:45:18;;;;;;;21.17;14.85;;;4.60;86.70;;;;;;5003935;28;20147;-38
2021/04/14 06:47:55;;;;;;;9.43;7.13;;;5.00;83.90;;;;;;5019151;28;20052;-39
2021/04/14 06:50:31;;;;;;;7.40;5.40;;;5.30;84.60;;;;;;5021663;28;20056;-39
2021/04/14 06:52:59;;;;;;;11.77;7.45;;;5.70;86.20;;;;;;5023502;28;20136;-39
2021/04/14 06:55:34;;;;;;;10.13;6.68;;;6.20;85.30;;;;;;5018393;28;20052;-39
2021/04/14 06:58:08;;;;;;;10.38;5.28;;;6.40;82.50;;;;;;5016503;28;20100;-39
2021/04/14 07:00:42;;;;;;;7.13;5.13;;;6.70;79.50;;;;;;5022150;28;20053;-39
2021/04/14 07:03:19;;;;;;;7.90;5.63;;;7.00;77.70;;;;;;5023456;28;20906;-37
2021/04/14 07:05:58;;;;;;;10.77;5.40;;;7.30;79.60;;;;;;5020336;28;20049;-38
2021/04/14 07:10:39;;;;;;;5.53;3.08;;;7.70;77.00;;;;;;5123035;27;20377;-38
2021/04/14 07:13:12;;;;;;;6.88;3.17;;;7.80;72.70;;;;;;5125334;27;20054;-39
2021/04/14 07:15:39;;;;;;;4.47;2.88;;;8.10;72.90;;;;;;5118565;28;20050;-39
2021/04/14 07:18:56;;;;;;;5.40;2.70;;;8.40;73.50;;;;;;5105233;27;20051;-39
2021/04/14 07:21:34;;;;;;;5.82;2.50;;;9.10;69.20;;;;;;5014791;28;20589;-39
2021/04/14 07:24:32;;;;;;;4.82;2.67;;;9.20;66.80;;;;;;5017140;28;20081;-39
2021/04/14 07:27:34;;;;;;;7.57;3.45;;;9.30;67.20;;;;;;5019876;28;20041;-39
2021/04/14 07:30:14;;;;;;;7.35;3.15;;;9.60;66.30;;;;;;5015273;28;20125;-39
2021/04/14 07:33:19;;;;;;;7.88;4.70;;;9.50;66.30;;;;;;5013093;28;20505;-39
2021/04/14 07:36:03;;;;;;;16.25;12.88;;;10.00;66.10;;;;;;5019202;28;20502;-39
2021/04/14 07:38:42;;;;;;;15.70;8.73;;;10.00;65.50;;;;;;5021314;28;20065;-39
2021/04/14 07:41:50;;;;;;;4.53;2.50;;;10.20;66.80;;;;;;5021917;28;20049;-36
2021/04/14 07:44:36;;;;;;;8.80;4.15;;;10.50;61.80;;;;;;5010156;28;20244;-36
2021/04/14 07:47:11;;;;;;;6.97;2.40;;;10.70;62.90;;;;;;5001517;28;20080;-40
2021/04/14 07:49:45;;;;;;;4.93;2.50;;;11.00;61.10;;;;;;5012532;28;20168;-38
2021/04/14 07:52:19;;;;;;;7.75;3.15;;;11.10;62.10;;;;;;5019631;28;20403;-38
2021/04/14 07:54:47;;;;;;;5.22;2.15;;;11.10;62.60;;;;;;5017062;28;20100;-38
2021/04/14 07:57:31;;;;;;;6.45;1.85;;;11.10;61.10;;;;;;5034372;28;20060;-38
2021/04/14 08:00:14;;;;;;;9.02;4.32;;;11.10;60.30;;;;;;5092228;28;20131;-38
2021/04/14 08:02:43;;;;;;;7.18;2.05;;;11.60;56.50;;;;;;5127048;27;20048;-38
2021/04/14 08:05:27;;;;;;;5.20;2.25;;;11.10;60.00;;;;;;5089504;28;20052;-38
2021/04/14 08:07:54;;;;;;;5.82;2.90;;;11.50;60.70;;;;;;5092154;28;20048;-38
2021/04/14 08:10:26;;;;;;;5.97;1.63;;;11.70;58.40;;;;;;5096600;28;20063;-38
2021/04/14 08:12:54;;;;;;;7.70;1.90;;;12.20;57.50;;;;;;5097703;28;20143;-38
2021/04/14 08:15:41;;;;;;;11.10;7.32;;;12.40;54.70;;;;;;5106968;28;20451;-38
2021/04/14 08:18:10;;;;;;;4.85;1.38;;;12.80;52.70;;;;;;5099666;28;20051;-38
2021/04/14 08:20:38;;;;;;;15.63;8.75;;;13.00;51.70;;;;;;5086959;28;20045;-37
2021/04/14 08:23:30;;;;;;;6.53;3.13;;;12.70;53.50;;;;;;5081565;28;20047;-37
2021/04/14 08:26:01;;;;;;;7.07;2.55;;;11.90;51.70;;;;;;5082864;28;20040;-38
2021/04/14 08:28:33;;;;;;;8.87;4.77;;;11.20;54.20;;;;;;5077715;28;20075;-38
2021/04/14 08:31:11;;;;;;;3.83;1.42;;;10.50;54.30;;;;;;5081975;28;20051;-38
2021/04/14 08:33:38;;;;;;;3.75;1.35;;;9.90;55.30;;;;;;5083330;28;20040;-37
2021/04/14 08:36:18;;;;;;;4.13;1.20;;;10.50;56.30;;;;;;5085959;28;20428;-38
2021/04/14 08:38:47;;;;;;;15.80;10.50;;;10.60;55.20;;;;;;5084889;28;20048;-38
2021/04/14 08:41:29;;;;;;;9.07;4.53;;;10.60;54.00;;;;;;5086326;28;20048;-38
2021/04/14 08:44:08;;;;;;;13.98;6.68;;;10.60;55.00;;;;;;5082357;28;20044;-38
2021/04/14 08:46:38;;;;;;;3.25;1.27;;;10.10;55.40;;;;;;5088669;28;20100;-38
2021/04/14 08:49:35;;;;;;;6.55;1.77;;;9.80;55.60;;;;;;5082466;28;20050;-39
2021/04/14 08:52:09;;;;;;;5.53;2.38;;;10.20;56.30;;;;;;5011652;28;20049;-38
2021/04/14 08:54:37;;;;;;;6.30;2.38;;;11.30;55.90;;;;;;5013954;28;20050;-40
2021/04/14 08:57:07;;;;;;;7.85;5.18;;;11.70;53.20;;;;;;5020303;28;20063;-39
2021/04/14 08:59:33;;;;;;;7.10;3.40;;;11.60;54.60;;;;;;5004457;28;20066;-39
2021/04/14 09:02:04;;;;;;;4.63;1.52;;;11.00;54.10;;;;;;5010950;28;20073;-40
2021/04/14 09:04:32;;;;;;;4.30;1.30;;;10.40;52.40;;;;;;5015856;28;20523;-40
2021/04/14 09:07:03;;;;;;;5.05;1.20;;;9.90;53.60;;;;;;5011910;28;20125;-39
2021/04/14 09:09:45;;;;;;;2.30;1.00;;;9.40;54.70;;;;;;5005731;28;20065;-39
2021/04/14 09:12:16;;;;;;;7.50;1.42;;;9.30;55.40;;;;;;5014888;28;20050;-39
2021/04/14 09:14:58;;;;;;;4.05;1.05;;;10.20;56.00;;;;;;5011725;28;20049;-39
2021/04/14 09:17:25;;;;;;;3.53;1.10;;;11.00;51.90;;;;;;5001594;28;20748;-40
2021/04/14 09:20:18;;;;;;;3.38;1.10;;;11.60;50.10;;;;;;5013197;28;20057;-40
2021/04/14 09:22:44;;;;;;;4.68;1.95;;;11.80;47.90;;;;;;5016758;28;20065;-40
2021/04/14 09:25:26;;;;;;;4.20;1.00;;;12.40;46.60;;;;;;5016331;28;20673;-40
2021/04/14 09:28:01;;;;;;;6.15;1.85;;;13.10;45.10;;;;;;5030613;28;20045;-40
2021/04/14 09:30:54;;;;;;;18.75;13.13;;;13.70;44.20;;;;;;5082274;28;20063;-40
2021/04/14 09:33:50;;;;;;;11.52;5.78;;;13.90;45.30;;;;;;5081035;28;20052;-40
2021/04/14 09:36:34;;;;;;;12.23;6.75;;;13.10;43.60;;;;;;5083260;28;21007;-40
2021/04/14 09:39:31;;;;;;;8.68;4.55;;;12.10;44.10;;;;;;5085924;28;20403;-40
2021/04/14 09:41:57;;;;;;;3.25;0.68;;;11.20;44.50;;;;;;5084000;28;20594;-39
2021/04/14 09:44:31;;;;;;;3.28;0.80;;;10.50;46.10;;;;;;5078811;28;20052;-39
2021/04/14 09:47:13;;;;;;;5.38;1.50;;;10.20;47.90;;;;;;5078154;28;20071;-39
2021/04/14 09:49:43;;;;;;;4.10;0.82;;;10.60;48.30;;;;;;5066093;28;21053;-39
2021/04/14 09:52:30;;;;;;;5.43;0.88;;;11.30;46.30;;;;;;5075320;28;20040;-40
2021/04/14 09:55:38;;;;;;;4.70;1.20;;;12.00;46.70;;;;;;5069657;28;20060;-39
2021/04/14 09:58:17;;;;;;;3.80;1.23;;;11.80;44.90;;;;;;5087783;28;20483;-40
2021/04/14 10:00:51;;;;;;;5.45;1.30;;;11.60;47.00;;;;;;5083906;28;20137;-39
2021/04/14 10:03:37;;;;;;;3.10;0.80;;;11.30;47.80;;;;;;5068513;28;20052;-39
2021/04/14 10:06:26;;;;;;;6.45;1.63;;;11.00;49.80;;;;;;5069234;28;20055;-39
2021/04/14 10:09:29;;;;;;;4.38;1.40;;;10.50;52.60;;;;;;5065135;28;20102;-39
2021/04/14 10:12:21;;;;;;;4.72;1.50;;;10.20;54.50;;;;;;5070722;28;20051;-40
2021/04/14 10:14:57;;;;;;;4.93;1.27;;;10.00;55.80;;;;;;5078647;28;20056;-38
2021/04/14 10:17:26;;;;;;;9.50;1.63;;;10.00;57.00;;;;;;5085477;28;20097;-38
2021/04/14 10:20:06;;;;;;;7.03;1.30;;;10.10;57.40;;;;;;5082753;28;20508;-39
2021/04/14 10:22:48;;;;;;;5.88;1.35;;;10.00;56.50;;;;;;5075723;28;20074;-39
2021/04/14 10:25:22;;;;;;;5.90;1.55;;;10.30;55.40;;;;;;5100085;28;20073;-38
2021/04/14 10:28:05;;;;;;;4.53;1.40;;;10.30;55.40;;;;;;5074089;28;20385;-38
2021/04/14 10:30:36;;;;;;;3.05;1.10;;;10.80;54.90;;;;;;5067761;28;20108;-40
2021/04/14 10:33:13;;;;;;;5.93;1.38;;;10.90;52.90;;;;;;5082196;28;20051;-39
2021/04/14 10:35:42;;;;;;;6.90;3.33;;;11.50;51.60;;;;;;5076341;28;20052;-43
2021/04/14 10:38:11;;;;;;;7.10;2.15;;;11.80;51.00;;;;;;5078380;28;20072;-45
2021/04/14 10:40:44;;;;;;;1.83;0.77;;;11.70;49.50;;;;;;5077455;28;20451;-43
2021/04/14 10:43:19;;;;;;;6.30;2.65;;;12.10;46.80;;;;;;5079803;28;20758;-44
2021/04/14 10:45:54;;;;;;;5.75;1.58;;;13.20;44.90;;;;;;5068224;28;20485;-44
2021/04/14 10:48:26;;;;;;;7.35;3.05;;;14.00;41.90;;;;;;5080888;28;20047;-45
2021/04/14 10:51:07;;;;;;;4.55;1.60;;;14.50;42.50;;;;;;5073603;28;20099;-44
2021/04/14 10:53:47;;;;;;;5.40;1.77;;;14.90;37.80;;;;;;5083472;28;20131;-46
2021/04/14 10:56:30;;;;;;;4.47;1.45;;;14.70;36.90;;;;;;5077323;28;20117;-46
2021/04/14 10:59:00;;;;;;;3.35;1.10;;;14.90;39.30;;;;;;5079034;28;20157;-46
2021/04/14 11:01:35;;;;;;;4.18;1.70;;;15.10;40.50;;;;;;5077632;28;20131;-42
2021/04/14 11:04:11;;;;;;;3.90;1.20;;;14.60;38.60;;;;;;5057628;28;20049;-44
2021/04/14 11:06:44;;;;;;;2.33;1.13;;;15.10;38.30;;;;;;5070662;28;20075;-40
2021/04/14 11:09:16;;;;;;;8.68;6.38;;;15.20;39.10;;;;;;5071744;28;20057;-42
2021/04/14 11:11:46;;;;;;;4.30;1.17;;;16.10;39.10;;;;;;5084098;28;20048;-41
2021/04/14 11:14:15;;;;;;;7.97;4.65;;;16.40;37.70;;;;;;5075262;28;20716;-41
2021/04/14 11:16:47;;;;;;;8.02;4.18;;;16.10;36.10;;;;;;5079853;28;20551;-39
2021/04/14 11:19:25;;;;;;;1.55;0.90;;;16.00;34.50;;;;;;5072289;28;20447;-40
2021/04/14 11:22:01;;;;;;;3.40;0.80;;;16.00;35.30;;;;;;5073369;28;20147;-39
2021/04/14 11:24:28;;;;;;;14.60;10.70;;;15.60;35.50;;;;;;5077643;28;20420;-39
2021/04/14 11:26:58;;;;;;;12.48;8.55;;;15.80;38.10;;;;;;5078015;28;20075;-39
2021/04/14 11:29:31;;;;;;;6.45;2.65;;;15.40;36.80;;;;;;5073319;28;20049;-39
2021/04/14 11:31:59;;;;;;;8.15;3.72;;;14.80;36.80;;;;;;5076540;28;20071;-39
2021/04/14 11:34:37;;;;;;;3.75;1.35;;;14.20;38.20;;;;;;5078522;28;20981;-39
2021/04/14 11:37:25;;;;;;;6.15;2.00;;;13.60;38.40;;;;;;5079324;28;20075;-40
2021/04/14 11:40:02;;;;;;;3.95;1.15;;;13.50;42.90;;;;;;5075418;28;20052;-39
2021/04/14 11:42:55;;;;;;;4.32;1.38;;;12.90;44.10;;;;;;5067460;28;20064;-39
2021/04/14 11:45:32;;;;;;;5.53;2.15;;;12.60;46.30;;;;;;5070701;28;20057;-39
2021/04/14 11:48:08;;;;;;;4.25;1.65;;;12.10;46.60;;;;;;5076954;28;20052;-39
2021/04/14 11:50:34;;;;;;;4.20;1.60;;;11.90;46.80;;;;;;5074043;28;20044;-39
2021/04/14 11:53:23;;;;;;;3.47;0.88;;;11.60;47.30;;;;;;5076724;28;20052;-39
2021/04/14 11:55:54;;;;;;;4.05;1.17;;;11.30;47.90;;;;;;5079378;28;20056;-39
2021/04/14 11:58:49;;;;;;;3.65;1.58;;;11.20;47.90;;;;;;5081628;28;20500;-40
2021/04/14 12:01:26;;;;;;;3.45;0.80;;;11.00;49.90;;;;;;4992845;28;20111;-41
2021/04/14 12:03:55;;;;;;;5.18;0.90;;;10.90;48.50;;;;;;4994292;28;20054;-40
2021/04/14 12:06:22;;;;;;;4.20;1.10;;;10.70;51.80;;;;;;4993541;28;20779;-40
2021/04/14 12:08:53;;;;;;;2.47;1.05;;;10.70;51.00;;;;;;4991023;28;20768;-41
2021/04/14 12:11:23;;;;;;;3.63;0.90;;;10.70;50.10;;;;;;4990440;28;20507;-40
2021/04/14 12:13:51;;;;;;;1.17;0.45;;;10.80;49.50;;;;;;4992603;28;20617;-42
2021/04/14 12:16:20;;;;;;;4.60;1.23;;;10.90;49.40;;;;;;4991990;28;20927;-41
2021/04/14 12:18:52;;;;;;;1.52;0.70;;;11.00;48.00;;;;;;4989427;28;20053;-41
2021/04/14 12:21:21;;;;;;;1.88;0.63;;;11.60;47.20;;;;;;4992280;28;20061;-40
2021/04/14 12:23:56;;;;;;;2.35;0.60;;;12.00;47.00;;;;;;4988607;28;20057;-40
2021/04/14 12:26:30;;;;;;;3.58;0.90;;;12.00;46.70;;;;;;4989357;28;20149;-41
2021/04/14 12:28:58;;;;;;;7.70;1.08;;;12.40;48.80;;;;;;4988716;28;20107;-42
2021/04/14 12:31:33;;;;;;;3.85;0.85;;;12.70;46.80;;;;;;4991607;28;20037;-40
2021/04/14 12:34:04;;;;;;;4.80;1.00;;;13.60;45.60;;;;;;4993895;28;20053;-42
2021/04/14 12:36:33;;;;;;;5.85;1.10;;;14.40;45.20;;;;;;4991514;28;20861;-42
2021/04/14 12:39:04;;;;;;;3.00;0.77;;;15.30;43.20;;;;;;5062282;28;21721;-40
2021/04/14 12:41:31;;;;;;;3.83;0.93;;;15.00;42.00;;;;;;5079002;28;20039;-42
2021/04/14 12:46:47;;;;;;;5.60;1.10;;;14.20;44.80;;;;;;5076764;28;20083;-41
2021/04/14 12:49:21;;;;;;;6.35;1.70;;;14.10;45.70;;;;;;5084450;28;20060;-38
2021/04/14 12:52:01;;;;;;;11.27;6.90;;;14.10;46.50;;;;;;5082942;28;20127;-38
2021/04/14 12:54:35;;;;;;;8.65;4.55;;;14.50;47.00;;;;;;5082938;28;20047;-37
2021/04/14 12:57:12;;;;;;;6.93;4.53;;;14.90;44.10;;;;;;5078823;28;20150;-37
2021/04/14 12:59:54;;;;;;;4.72;1.92;;;13.20;43.40;;;;;;5077487;28;20425;-36
2021/04/14 13:02:24;;;;;;;3.85;1.00;;;13.00;45.90;;;;;;5075194;28;20072;-36
2021/04/14 13:05:05;;;;;;;4.97;2.33;;;12.60;45.90;;;;;;5082340;28;20463;-35
2021/04/14 13:07:53;;;;;;;3.97;1.30;;;13.40;45.30;;;;;;5078270;28;20052;-36
2021/04/14 13:10:24;;;;;;;9.05;4.30;;;14.20;43.30;;;;;;5073161;28;20069;-36
2021/04/14 13:12:50;;;;;;;6.30;2.15;;;14.50;42.90;;;;;;5076993;28;20496;-36
2021/04/14 13:15:38;;;;;;;3.47;1.17;;;14.30;43.10;;;;;;5078451;28;20056;-36
2021/04/14 13:18:08;;;;;;;3.75;1.50;;;13.90;43.00;;;;;;5074985;28;20054;-36
2021/04/14 13:20:47;;;;;;;3.72;1.45;;;13.70;45.20;;;;;;5075396;28;20045;-36
2021/04/14 13:23:19;;;;;;;5.25;1.40;;;12.70;45.40;;;;;;5082643;28;20052;-36
2021/04/14 13:25:58;;;;;;;163.40;141.88;;;12.40;47.70;;;;;;5080777;28;20076;-36